Ride Results

Tooraweenah (11-04-2015)
Ride distance: 80.0 km

Outcomes - Tooraweenah (11-04-2015)
Division No. of Entries Retired / DNE Completed Withdrawn Ineligible V/O Percentage Completed
HW 12 - 10 - - 2 83.33%
MW 26 - 23 1 - 2 88.46%
LW 10 - 9 - - 1 90.00%
JN 5 - 4 1 - - 80.00%
Totals 53 - 46 2 - 5 86.79%
Results - Tooraweenah (11-04-2015)
No. Rider Horse Place Time Leg Speeds Total
Km/Hr
H/R bpm
Heavyweight
426 Dallas Blakely Ahnoosa 1 (BC) 6:54:00 13.1, 10.3 11.59 39, 43, 48 (Avg:45)
422 Gavin Peacock Eclipse 2 7:24:00 13.6, 8.9 10.81 42, 48, 42 (Avg:45)
423 Tami Parnell Cherox Kenya 3 7:36:00 11.8, 9.4 10.53 38, 38, 40 (Avg:39)
429 Andrew Jonkers Girilambone Comet 4 7:47:00 12.4, 8.7 10.28 28, 34, 54 (Avg:44)
427 Andrew Bailey Springridge Braxton 5 7:49:00 10.4, 9.9 10.23 37, 42, 48 (Avg:45)
428 Christopher Bailey Coolahlee Park Sabre 5 7:49:00 10.4, 9.9 10.23 36, 41, 48 (Avg:44)
425 Rod Mitchell Aloha Tribal Warrior 7 7:55:00 11.1, 9.2 10.11 33, 43, 49 (Avg:46)
421 Jody Harrison Phoenix 8 8:53:00 9.8, 8.2 9.01 36, 46, 50 (Avg:48)
408 Lee Curtis Suncrest Kadenza 9 8:54:00 11.4, 7.3 8.99 32, 39, 42 (Avg:40)
419 Damien Bonham Box Hill Ralph 10 9:30:00 8.8, 7.9 8.42 36, 40, 48 (Avg:44)
424 Roy Barsby Dumaresq Jackson Heart Rate L2 0:00:00 15.0, 11.5 - 31, 42, 68 (Avg:55)
418 Jack Johnson Sharahd Narang Lame L2 0:00:00 12.4, 10.0 - 36, 44, 45 (Avg:44)
Middleweight
318 Rochelle Knihinicki Ky 1 6:24:00 14.1, 11.2 12.50 37, 43, 49 (Avg:46)
326 Darryl King James Bonn 2 6:39:00 13.1, 11.0 12.03 33, 44, 52 (Avg:48)
328 Annette Bailey Harmere Katif 3 6:43:00 12.7, 11.1 11.91 32, 45, 47 (Avg:46)
334 Ben Hudson Littlebanks Integrity 3 6:43:00 12.6, 11.2 11.91 40, 40, 44 (Avg:42)
314 Garry Bennett Misty Heights Romance 5 6:51:00 11.8, 11.5 11.68 34, 34, 48 (Avg:41)
322 Gail Fisher Arasarta Narhalinian 5 (BC) 6:51:00 11.8, 11.5 11.68 34, 38, 46 (Avg:42)
327 Sonia Bonham Box Hill Bullzeye 7 7:07:00 12.2, 10.3 11.24 30, 44, 48 (Avg:46)
315 Carol Major Saradon 8 7:10:00 12.4, 10.1 11.16 38, 36, 54 (Avg:45)
312 Victoria Bonham Bridle Track Bogart 9 7:12:00 12.9, 9.7 11.11 37, 46, 54 (Avg:50)
311 Chris Noonan Bridle Track Tiara 9 7:12:00 12.9, 9.7 11.11 34, 46, 47 (Avg:46)
305 Ruth Van der Wegen Aloha Ameer 11 7:25:00 12.2, 9.6 10.79 36, 42, 40 (Avg:41)
316 Tracey Hutchinson Woodbourne Granite 12 7:36:00 11.8, 9.4 10.53 40, 41, 46 (Avg:43)
319 Michael Boland Rosebrae Amber 13 7:48:00 11.6, 9.1 10.26 42, 40, 48 (Avg:44)
320 Margaret Boland Rosebrae Cameo 13 7:48:00 11.6, 9.1 10.26 37, 40, 40 (Avg:40)
306 Leisa Neal Razorback Fire Wing 15 7:55:00 11.1, 9.2 10.11 34, 41, 46 (Avg:43)
324 Lauren Mitchell Burren-Dah Gidget 16 8:13:00 12.3, 8.0 9.74 38, 44, 54 (Avg:49)
317 Allison Knihinicki Come Fly with Me 17 8:40:00 10.1, 8.4 9.23 38, 46, 53 (Avg:49)
310 Lyn Dillon Churinga Lite Mi Fire 18 8:54:00 9.8, 8.2 8.99 39, 36, 52 (Avg:44)
309 Ann English Makhtar 18 8:54:00 11.4, 7.3 8.99 40, 43, 50 (Avg:46)
321 Bernice King Deneldan Shacaargo 18 8:54:00 8.8, 9.0 8.99 34, 41, 51 (Avg:46)
331 Leslee Burrell Odyssey Golden Phoenix 21 9:18:00 9.4, 7.8 8.60 35, 40, 47 (Avg:43)
332 Christie Chapman Larntainey Crystal Girl 21 9:18:00 9.4, 7.8 8.60 38, 38, 42 (Avg:40)
330 Mark Greenaway Box Hill Gypsy 23 9:30:00 8.8, 7.9 8.42 36, 40, 44 (Avg:42)
329 Kylie Jonkers Girilambone Aurora Lame L2 0:00:00 12.4, 8.7 - 32, 39, 47 (Avg:43)
323 Mette Sutton Tiendebah Esparda Moon Lame L2 0:00:00 10.6, 9.3 - 36, 48, 58 (Avg:53)
313 Renee Kirk Garnee Full Throttle Withdrawn L1 0:00:00 - - 40, 49 (Avg:49)
Lightweight
205 Dianne Luker Kintamani Silver Diva 1 (BC) 6:53:00 13.1, 10.4 11.62 28, 42, 42 (Avg:42)
207 Jan Wade Hillville Amigo 2 6:54:00 13.1, 10.3 11.59 36, 42, 51 (Avg:46)
210 Adele Sonter Aloha Zulm 3 7:07:00 12.3, 10.3 11.24 22, 33, 42 (Avg:37)
204 Sue Todd Shalacey Bear 4 7:10:00 12.4, 10.1 11.16 36, 45, 48 (Avg:46)
208 Catherine Connors Incognito 5 7:25:00 13.5, 8.9 10.79 34, 41, 51 (Avg:46)
209 Linda Jonkers Girilambone Venus 6 7:47:00 12.4, 8.7 10.28 38, 36, 45 (Avg:40)
206 Linda Logan Willow Valley Dartanyan 7 8:13:00 12.3, 8.0 9.74 33, 40, 44 (Avg:42)
200 Wendy Jones Larntainey Gold 'N' Treasure 8 9:15:00 9.2, 8.1 8.65 30, 40, 44 (Avg:42)
202 Allix Jones Wondjina Stardust 8 9:15:00 9.2, 8.1 8.65 42, 40, 44 (Avg:42)
212 Kate Pilley Pancho Metabolics moderate L2 0:00:00 15.0, 11.8 - 32, 44, 66 (Avg:55)
Junior
100 Isabella Circosta Ropa Park Bella Shakila 1 (BC) 8:40:00 10.1, 8.4 9.23 40, 44, 44 (Avg:44)
101 Makayla Circosta Ropa Park Bella Rastique 1 8:40:00 10.1, 8.4 9.23 39, 44, 55 (Avg:49)
104 Charlie Bonham Box Hill Hussy 3 9:30:00 8.8, 7.9 8.42 34, 36, 46 (Avg:41)
103 Blake Duff Box Hill Rogan Josh 3 9:30:00 8.8, 7.9 8.42 33, 40, 41 (Avg:40)
102 Sam Duff Box Hill Pegasus Withdrawn L1 0:00:00 - - 38, 34 (Avg:34)